createdAt,value
2018-09-27T00:00:16.575Z,5.90
2018-09-27T00:02:43.981Z,6.10
2018-09-27T00:05:11.433Z,6.57
2018-09-27T00:07:38.833Z,6.13
2018-09-27T00:10:06.285Z,6.10
2018-09-27T00:12:33.738Z,6.10
2018-09-27T00:15:01.151Z,6.80
2018-09-27T00:17:28.614Z,6.20
2018-09-27T00:19:56.036Z,6.53
2018-09-27T00:22:23.451Z,6.87
2018-09-27T00:24:50.847Z,7.90
2018-09-27T00:27:18.254Z,6.10
2018-09-27T00:29:45.672Z,7.00
2018-09-27T00:32:13.091Z,5.97
2018-09-27T00:34:40.485Z,5.90
2018-09-27T00:37:07.926Z,5.67
2018-09-27T00:39:35.352Z,6.43
2018-09-27T00:42:03.167Z,6.30
2018-09-27T00:44:30.605Z,6.27
2018-09-27T00:46:58.053Z,6.50
2018-09-27T00:49:25.563Z,6.70
2018-09-27T00:51:53.003Z,6.67
2018-09-27T00:54:20.402Z,6.17
2018-09-27T00:56:47.960Z,5.90
2018-09-27T00:59:15.461Z,6.83
2018-09-27T01:01:42.855Z,6.70
2018-09-27T01:06:44.500Z,6.80
2018-09-27T01:09:11.996Z,5.77
2018-09-27T01:11:39.662Z,6.50
2018-09-27T01:14:07.079Z,6.60
2018-09-27T01:16:34.500Z,6.30
2018-09-27T01:19:02.161Z,6.70
2018-09-27T01:21:30.031Z,6.27
2018-09-27T01:23:57.469Z,6.90
2018-09-27T01:26:25.128Z,7.20
2018-09-27T01:28:52.555Z,8.10
2018-09-27T01:31:20.007Z,7.50
2018-09-27T01:33:48.203Z,7.20
2018-09-27T01:36:15.598Z,7.20
2018-09-27T01:38:43.063Z,7.30
2018-09-27T01:41:10.647Z,7.70
2018-09-27T01:43:38.084Z,7.40
2018-09-27T01:46:05.583Z,7.90
2018-09-27T01:48:33.053Z,8.10
2018-09-27T01:51:00.443Z,7.90
2018-09-27T01:53:27.851Z,7.77
2018-09-27T01:55:55.449Z,8.40
2018-09-27T01:58:22.862Z,8.40
2018-09-27T02:00:50.272Z,8.83
2018-09-27T02:03:17.861Z,8.30
2018-09-27T02:05:45.308Z,8.73
2018-09-27T02:08:12.763Z,7.30
2018-09-27T02:10:40.232Z,7.90
2018-09-27T02:13:07.662Z,8.93
2018-09-27T02:15:35.126Z,8.63
2018-09-27T02:18:02.783Z,8.97
2018-09-27T02:20:30.216Z,7.47
2018-09-27T02:22:57.749Z,8.43
2018-09-27T02:25:25.189Z,7.33
2018-09-27T02:27:52.635Z,9.67
2018-09-27T02:30:20.073Z,9.53
2018-09-27T02:32:47.515Z,9.87
2018-09-27T02:35:14.939Z,8.60
2018-09-27T02:37:42.380Z,8.70
2018-09-27T02:40:10.314Z,9.10
2018-09-27T02:42:37.711Z,8.90
2018-09-27T02:45:05.217Z,9.00
2018-09-27T02:47:32.687Z,8.90
2018-09-27T02:50:03.435Z,10.40
2018-09-27T02:52:30.902Z,10.13
2018-09-27T02:54:58.633Z,9.70
2018-09-27T02:57:26.076Z,9.60
2018-09-27T02:59:53.776Z,10.50
2018-09-27T03:02:21.423Z,10.00
2018-09-27T03:04:48.887Z,10.77
2018-09-27T03:07:16.511Z,9.90
2018-09-27T03:09:43.947Z,12.73
2018-09-27T03:12:11.365Z,10.97
2018-09-27T03:14:38.805Z,11.57
2018-09-27T03:17:05.967Z,11.37
2018-09-27T03:19:33.539Z,10.63
2018-09-27T03:22:00.949Z,11.73
2018-09-27T03:24:28.391Z,11.43
2018-09-27T03:26:55.878Z,10.77
2018-09-27T03:29:23.301Z,12.43
2018-09-27T03:31:50.753Z,11.50
2018-09-27T03:34:18.495Z,11.97
2018-09-27T03:36:45.965Z,11.90
2018-09-27T03:39:13.496Z,14.47
2018-09-27T03:41:41.346Z,12.47
2018-09-27T03:44:08.920Z,11.87
2018-09-27T03:46:36.400Z,13.50
2018-09-27T03:49:04.200Z,13.77
2018-09-27T03:51:31.690Z,13.10
2018-09-27T03:53:59.179Z,15.17
2018-09-27T03:56:29.001Z,13.80
2018-09-27T03:58:57.598Z,13.67
2018-09-27T04:01:25.019Z,15.13
2018-09-27T04:03:52.427Z,14.50
2018-09-27T04:06:21.095Z,13.50
2018-09-27T04:08:48.538Z,14.57
2018-09-27T04:11:15.987Z,15.80
2018-09-27T04:13:43.423Z,15.97
2018-09-27T04:16:10.924Z,14.70
2018-09-27T04:18:38.418Z,14.60
2018-09-27T04:21:05.875Z,16.00
2018-09-27T04:23:33.542Z,16.50
2018-09-27T04:26:01.007Z,16.40
2018-09-27T04:28:28.436Z,16.43
2018-09-27T04:30:55.908Z,16.80
2018-09-27T04:33:23.371Z,16.80
2018-09-27T04:35:51.243Z,16.63
2018-09-27T04:38:18.691Z,16.67
2018-09-27T04:40:46.163Z,16.87
2018-09-27T04:43:13.610Z,17.07
2018-09-27T04:45:41.329Z,18.30
2018-09-27T04:48:08.731Z,18.40
2018-09-27T04:50:36.160Z,19.17
2018-09-27T04:53:03.628Z,18.40
2018-09-27T04:55:31.165Z,16.70
2018-09-27T04:57:58.658Z,17.30
2018-09-27T05:00:26.113Z,18.70
2018-09-27T05:02:53.552Z,19.10
2018-09-27T05:05:21.008Z,17.93
2018-09-27T05:07:48.451Z,18.67
2018-09-27T05:10:15.961Z,18.03
2018-09-27T05:12:43.420Z,16.80
2018-09-27T05:15:10.891Z,19.07
2018-09-27T05:17:38.296Z,18.17
2018-09-27T05:20:07.292Z,17.87
2018-09-27T05:22:34.803Z,20.10
2018-09-27T05:25:02.236Z,19.77
2018-09-27T05:27:29.779Z,19.37
2018-09-27T05:29:57.268Z,18.83
2018-09-27T05:32:24.675Z,20.60
2018-09-27T05:34:52.091Z,19.90
2018-09-27T05:37:19.555Z,20.97
2018-09-27T05:39:47.137Z,19.60
2018-09-27T05:42:14.571Z,19.40
2018-09-27T05:44:41.995Z,21.07
2018-09-27T05:47:09.441Z,20.90
2018-09-27T05:49:36.899Z,19.47
2018-09-27T05:52:04.322Z,20.47
2018-09-27T05:54:31.730Z,19.90
2018-09-27T05:56:59.201Z,21.53
2018-09-27T05:59:26.747Z,22.37
2018-09-27T06:01:54.304Z,21.40
2018-09-27T06:04:21.759Z,20.47
2018-09-27T06:06:49.179Z,20.00
2018-09-27T06:09:16.632Z,21.10
2018-09-27T06:11:44.052Z,22.03
2018-09-27T06:14:11.485Z,21.93
2018-09-27T06:16:39.027Z,20.27
2018-09-27T06:19:07.179Z,22.27
2018-09-27T06:21:34.720Z,23.00
2018-09-27T06:24:02.138Z,22.03
2018-09-27T06:26:29.612Z,22.37
2018-09-27T06:28:57.076Z,21.70
2018-09-27T06:31:24.503Z,21.90
2018-09-27T06:33:51.951Z,23.10
2018-09-27T06:36:19.339Z,23.40
2018-09-27T06:38:46.773Z,21.53
2018-09-27T06:41:14.269Z,23.63
2018-09-27T06:43:41.697Z,21.90
2018-09-27T06:46:09.184Z,21.83
2018-09-27T06:48:36.642Z,24.43
2018-09-27T06:51:04.075Z,24.93
2018-09-27T06:53:31.480Z,20.93
2018-09-27T06:55:59.232Z,23.60
2018-09-27T06:58:26.621Z,25.43
2018-09-27T07:00:54.077Z,23.93
2018-09-27T07:03:21.510Z,22.20
2018-09-27T07:05:48.971Z,23.30
2018-09-27T07:08:16.550Z,22.57
2018-09-27T07:10:43.963Z,25.03
2018-09-27T07:13:11.399Z,23.00
2018-09-27T07:15:38.880Z,23.83
2018-09-27T07:18:06.293Z,23.93
2018-09-27T07:20:33.754Z,22.80
2018-09-27T07:23:01.290Z,23.30
2018-09-27T07:25:28.764Z,23.67
2018-09-27T07:27:56.626Z,23.20
2018-09-27T07:30:24.080Z,22.60
2018-09-27T07:32:51.535Z,23.10
2018-09-27T07:35:18.980Z,22.30
2018-09-27T07:37:46.452Z,23.90
2018-09-27T07:40:13.894Z,21.83
2018-09-27T07:42:41.669Z,22.70
2018-09-27T07:45:09.083Z,22.97
2018-09-27T07:47:36.563Z,24.80
2018-09-27T07:50:04.063Z,22.37
2018-09-27T07:52:31.811Z,22.10
2018-09-27T07:54:59.241Z,23.23
2018-09-27T07:57:26.675Z,21.10
2018-09-27T07:59:54.275Z,20.20
2018-09-27T08:02:21.968Z,21.67
2018-09-27T08:04:49.326Z,21.67
2018-09-27T08:07:17.064Z,21.53
2018-09-27T08:09:44.495Z,21.10
2018-09-27T08:12:11.954Z,21.23
2018-09-27T08:14:39.710Z,20.23
2018-09-27T08:17:07.158Z,20.83
2018-09-27T08:19:34.832Z,24.43
2018-09-27T08:22:02.272Z,20.57
2018-09-27T08:24:29.911Z,21.00
2018-09-27T08:26:57.357Z,19.97
2018-09-27T08:29:24.868Z,20.60
2018-09-27T08:31:52.329Z,19.67
2018-09-27T08:34:19.743Z,20.80
2018-09-27T08:36:47.243Z,19.17
2018-09-27T08:39:14.935Z,22.17
2018-09-27T08:41:42.387Z,18.50
2018-09-27T08:44:10.887Z,18.20
2018-09-27T08:46:38.584Z,19.10
2018-09-27T08:52:02.280Z,18.10
2018-09-27T08:54:29.682Z,18.73
2018-09-27T08:59:31.443Z,17.97
2018-09-27T09:01:58.857Z,17.90
2018-09-27T09:04:26.252Z,17.83
2018-09-27T09:06:53.652Z,15.47
2018-09-27T09:09:21.063Z,17.70
2018-09-27T09:11:48.560Z,18.03
2018-09-27T09:14:15.957Z,17.53
2018-09-27T09:16:43.391Z,17.10
2018-09-27T09:19:10.994Z,16.37
2018-09-27T09:21:38.635Z,15.57
2018-09-27T09:24:05.996Z,14.20
2018-09-27T09:26:33.415Z,15.23
2018-09-27T09:29:00.831Z,15.23
2018-09-27T09:31:28.265Z,15.90
2018-09-27T09:33:55.679Z,13.47
2018-09-27T09:36:23.100Z,14.60
2018-09-27T09:38:50.563Z,14.30
2018-09-27T09:41:17.993Z,13.23
2018-09-27T09:43:45.403Z,13.50
2018-09-27T09:46:13.144Z,13.43
2018-09-27T09:48:40.594Z,12.97
2018-09-27T09:51:07.998Z,14.87
2018-09-27T09:53:35.536Z,14.10
2018-09-27T09:56:03.508Z,10.83
2018-09-27T09:58:30.915Z,11.40
2018-09-27T10:00:58.369Z,12.33
2018-09-27T10:03:25.851Z,11.40
2018-09-27T10:05:53.307Z,11.67
2018-09-27T10:08:20.794Z,9.63
2018-09-27T10:10:48.207Z,9.90
2018-09-27T10:13:15.655Z,10.73
2018-09-27T10:15:43.075Z,10.23
2018-09-27T10:18:10.594Z,11.10
2018-09-27T10:20:37.969Z,10.70
2018-09-27T10:23:05.385Z,11.63
2018-09-27T10:25:32.974Z,10.40
2018-09-27T10:28:00.588Z,11.40
2018-09-27T10:30:28.034Z,10.70
2018-09-27T10:32:55.495Z,9.40
2018-09-27T10:35:22.956Z,9.40
2018-09-27T10:37:50.379Z,10.77
2018-09-27T10:40:17.826Z,10.03
2018-09-27T10:42:45.263Z,10.30
2018-09-27T10:45:12.768Z,11.47
2018-09-27T10:47:40.178Z,9.93
2018-09-27T10:50:07.679Z,9.60
2018-09-27T10:52:35.095Z,10.47
2018-09-27T10:55:02.648Z,9.63
2018-09-27T10:57:30.159Z,9.80
2018-09-27T10:59:57.721Z,9.07
2018-09-27T11:02:25.128Z,10.80
2018-09-27T11:04:52.539Z,9.93
2018-09-27T11:07:19.963Z,9.00
2018-09-27T11:09:47.427Z,9.10
2018-09-27T11:12:14.863Z,8.70
2018-09-27T11:14:42.345Z,8.40
2018-09-27T11:17:09.736Z,7.43
2018-09-27T11:19:37.271Z,9.60
2018-09-27T11:22:04.718Z,8.23
2018-09-27T11:24:32.155Z,7.30
2018-09-27T11:26:59.663Z,8.90
2018-09-27T11:29:32.703Z,7.63
2018-09-27T11:32:05.875Z,8.00
2018-09-27T11:34:33.321Z,7.63
2018-09-27T11:37:00.830Z,7.77
2018-09-27T11:39:28.251Z,7.00
2018-09-27T11:41:55.720Z,8.23
2018-09-27T11:44:23.300Z,7.60
2018-09-27T11:46:50.849Z,7.90
2018-09-27T11:50:21.747Z,6.57
2018-09-27T11:52:49.084Z,8.60
2018-09-27T11:55:16.496Z,8.23
2018-09-27T11:57:43.954Z,7.20
2018-09-27T12:00:11.481Z,6.10
2018-09-27T12:02:39.000Z,5.80
2018-09-27T12:05:06.531Z,5.37
2018-09-27T12:07:34.077Z,5.77
2018-09-27T12:10:01.743Z,6.47
2018-09-27T12:12:29.131Z,6.37
2018-09-27T12:14:56.575Z,6.10
2018-09-27T12:17:24.025Z,5.90
2018-09-27T12:19:51.428Z,5.77
2018-09-27T12:22:18.827Z,6.47
2018-09-27T12:24:46.246Z,6.37
2018-09-27T12:27:13.715Z,5.03
2018-09-27T12:29:41.139Z,5.77
2018-09-27T12:32:08.543Z,5.80
2018-09-27T12:34:36.024Z,6.30
2018-09-27T12:37:03.532Z,6.20
2018-09-27T12:39:31.035Z,5.53
2018-09-27T12:41:58.659Z,6.10
2018-09-27T12:44:26.597Z,5.60
2018-09-27T12:46:54.118Z,5.80
2018-09-27T12:49:21.493Z,5.53
2018-09-27T12:51:49.920Z,4.83
2018-09-27T12:54:17.314Z,5.20
2018-09-27T12:56:44.759Z,4.47
2018-09-27T12:59:12.198Z,4.97
2018-09-27T13:01:39.760Z,5.03
2018-09-27T13:04:07.224Z,4.80
2018-09-27T13:06:34.614Z,6.17
2018-09-27T13:09:02.388Z,5.03
2018-09-27T13:11:29.715Z,4.83
2018-09-27T13:13:57.127Z,5.40
2018-09-27T13:16:24.547Z,5.80
2018-09-27T13:18:51.981Z,5.50
2018-09-27T13:21:19.351Z,4.80
2018-09-27T13:23:46.746Z,5.23
2018-09-27T13:26:14.143Z,5.87
2018-09-27T13:28:41.598Z,5.67
2018-09-27T13:31:08.990Z,5.77
2018-09-27T13:33:36.387Z,5.47
2018-09-27T13:36:03.872Z,5.17
2018-09-27T13:38:31.258Z,5.20
2018-09-27T13:40:58.671Z,5.40
2018-09-27T13:43:26.131Z,5.50
2018-09-27T13:45:53.556Z,5.00
2018-09-27T13:48:20.967Z,5.10
2018-09-27T13:50:48.359Z,5.70
2018-09-27T13:53:15.743Z,5.00
2018-09-27T13:55:43.127Z,5.60
2018-09-27T13:58:10.537Z,6.07
2018-09-27T14:00:37.995Z,4.67
2018-09-27T14:03:05.526Z,4.63
2018-09-27T14:05:32.963Z,4.93
2018-09-27T14:08:00.449Z,4.87
2018-09-27T14:10:27.919Z,5.60
2018-09-27T14:12:55.371Z,4.73
2018-09-27T14:15:22.766Z,4.33
2018-09-27T14:17:50.143Z,4.30
2018-09-27T14:20:17.530Z,3.27
2018-09-27T14:22:44.955Z,3.67
2018-09-27T14:25:12.359Z,3.10
2018-09-27T14:27:39.864Z,4.20
2018-09-27T14:30:07.363Z,4.03
2018-09-27T14:32:34.787Z,5.77
2018-09-27T14:35:02.172Z,5.20
2018-09-27T14:37:29.646Z,4.33
2018-09-27T14:39:57.059Z,4.53
2018-09-27T14:42:24.551Z,4.70
2018-09-27T14:44:52.020Z,4.70
2018-09-27T14:47:19.448Z,3.97
2018-09-27T14:52:49.776Z,3.90
2018-09-27T14:55:17.255Z,4.20
2018-09-27T14:57:44.667Z,4.87
2018-09-27T15:00:12.184Z,4.23
2018-09-27T15:02:39.624Z,4.63
2018-09-27T15:05:07.135Z,4.40
2018-09-27T15:07:34.688Z,4.00
2018-09-27T15:10:02.248Z,4.60
2018-09-27T15:12:29.835Z,4.40
2018-09-27T15:14:57.226Z,3.70
2018-09-27T15:17:24.709Z,4.00
2018-09-27T15:19:52.207Z,5.00
2018-09-27T15:22:19.664Z,4.30
2018-09-27T15:24:47.202Z,3.17
2018-09-27T15:27:14.619Z,4.33
2018-09-27T15:29:42.031Z,3.77
2018-09-27T15:32:09.443Z,4.30
2018-09-27T15:34:37.163Z,3.33
2018-09-27T15:37:04.577Z,4.37
2018-09-27T15:39:31.991Z,4.20
2018-09-27T15:41:59.739Z,3.27
2018-09-27T15:44:27.282Z,4.30
2018-09-27T15:46:54.739Z,4.17
2018-09-27T15:49:22.194Z,4.57
2018-09-27T15:51:49.934Z,4.27
2018-09-27T15:54:17.848Z,4.60
2018-09-27T15:56:45.284Z,4.50
2018-09-27T15:59:12.707Z,4.53
2018-09-27T16:01:40.113Z,7.00
2018-09-27T16:04:08.037Z,4.80
2018-09-27T16:06:35.464Z,3.97
2018-09-27T16:09:04.392Z,4.40
2018-09-27T16:11:32.054Z,4.90
2018-09-27T16:13:59.502Z,4.63
2018-09-27T16:16:26.984Z,5.00
2018-09-27T16:18:54.390Z,4.13
2018-09-27T16:21:21.820Z,5.37
2018-09-27T16:23:49.260Z,5.30
2018-09-27T16:26:16.729Z,4.63
2018-09-27T16:28:44.163Z,4.53
2018-09-27T16:31:11.567Z,5.27
2018-09-27T16:33:39.086Z,6.40
2018-09-27T16:36:06.518Z,6.20
2018-09-27T16:38:34.612Z,6.00
2018-09-27T16:41:02.311Z,7.90
2018-09-27T16:43:29.802Z,6.70
2018-09-27T16:45:57.500Z,7.40
2018-09-27T16:48:25.007Z,7.00
2018-09-27T16:50:52.515Z,6.57
2018-09-27T16:53:20.171Z,6.90
2018-09-27T16:55:47.683Z,6.87
2018-09-27T16:58:15.152Z,5.47
2018-09-27T17:00:42.802Z,6.33
2018-09-27T17:03:10.237Z,5.80
2018-09-27T17:05:37.702Z,5.10
2018-09-27T17:08:05.303Z,4.67
2018-09-27T17:10:32.760Z,5.70
2018-09-27T17:13:00.364Z,4.87
2018-09-27T17:15:28.764Z,7.40
2018-09-27T17:17:56.205Z,5.50
2018-09-27T17:20:23.730Z,4.70
2018-09-27T17:22:51.370Z,4.67
2018-09-27T17:25:18.864Z,4.73
2018-09-27T17:27:47.073Z,4.40
2018-09-27T17:30:14.787Z,5.37
2018-09-27T17:32:42.223Z,5.40
2018-09-27T17:35:09.676Z,5.33
2018-09-27T17:37:37.195Z,5.07
2018-09-27T17:40:05.004Z,4.37
2018-09-27T17:42:32.432Z,6.13
2018-09-27T17:45:00.659Z,6.33
2018-09-27T17:47:28.159Z,5.43
2018-09-27T17:49:55.596Z,6.05
2018-09-27T17:52:23.135Z,7.57
2018-09-27T17:54:50.938Z,6.90
2018-09-27T17:57:21.547Z,7.90
2018-09-27T17:59:50.447Z,7.03
2018-09-27T18:02:17.924Z,8.20
2018-09-27T18:04:45.453Z,7.50
2018-09-27T18:07:12.837Z,8.53
2018-09-27T18:09:40.306Z,7.97
2018-09-27T18:12:08.428Z,7.90
2018-09-27T18:14:35.859Z,7.07
2018-09-27T18:17:03.320Z,8.13
2018-09-27T18:19:30.886Z,7.70
2018-09-27T18:21:58.360Z,5.97
2018-09-27T18:24:25.818Z,6.23
2018-09-27T18:26:53.555Z,6.83
2018-09-27T18:29:20.972Z,6.50
2018-09-27T18:31:48.416Z,8.00
2018-09-27T18:34:15.819Z,9.93
2018-09-27T18:36:43.252Z,11.00
2018-09-27T18:39:12.014Z,10.63
2018-09-27T18:41:39.664Z,8.43
2018-09-27T18:44:07.477Z,9.43
2018-09-27T18:46:35.085Z,9.03
2018-09-27T18:49:02.560Z,8.43
2018-09-27T18:51:30.356Z,8.40
2018-09-27T18:53:57.795Z,11.20
2018-09-27T18:56:25.227Z,9.23
2018-09-27T18:58:52.723Z,8.93
2018-09-27T19:01:20.172Z,7.67
2018-09-27T19:03:47.615Z,8.60
2018-09-27T19:06:15.053Z,8.33
2018-09-27T19:08:42.494Z,9.93
2018-09-27T19:11:09.989Z,8.50
2018-09-27T19:13:37.371Z,8.27
2018-09-27T19:16:04.838Z,8.63
2018-09-27T19:18:32.328Z,8.73
2018-09-27T19:20:59.820Z,8.67
2018-09-27T19:23:27.287Z,7.63
2018-09-27T19:25:54.704Z,7.87
2018-09-27T19:28:22.139Z,8.13
2018-09-27T19:30:49.564Z,8.00
2018-09-27T19:33:16.987Z,8.87
2018-09-27T19:35:44.501Z,8.63
2018-09-27T19:38:11.918Z,8.50
2018-09-27T19:40:39.420Z,8.30
2018-09-27T19:43:06.894Z,10.37
2018-09-27T19:45:35.077Z,9.70
2018-09-27T19:48:02.584Z,9.50
2018-09-27T19:50:30.028Z,9.63
2018-09-27T19:52:57.522Z,10.80
2018-09-27T19:55:24.968Z,8.97
2018-09-27T19:57:52.479Z,11.53
2018-09-27T20:00:19.951Z,11.93
2018-09-27T20:02:47.405Z,11.57
2018-09-27T20:05:14.827Z,10.23
2018-09-27T20:07:42.268Z,11.23
2018-09-27T20:10:10.093Z,10.53
2018-09-27T20:12:37.519Z,11.30
2018-09-27T20:15:05.372Z,10.67
2018-09-27T20:17:32.801Z,11.90
2018-09-27T20:20:00.324Z,11.90
2018-09-27T20:22:27.811Z,9.83
2018-09-27T20:24:55.286Z,11.37
2018-09-27T20:27:22.720Z,11.97
2018-09-27T20:29:50.267Z,11.87
2018-09-27T20:32:18.315Z,11.13
2018-09-27T20:34:46.497Z,13.87
2018-09-27T20:37:14.816Z,12.30
2018-09-27T20:39:43.200Z,11.90
2018-09-27T20:42:12.243Z,12.30
2018-09-27T20:44:40.355Z,12.23
2018-09-27T20:47:08.940Z,11.13
2018-09-27T20:49:36.466Z,14.40
2018-09-27T20:52:04.111Z,13.13
2018-09-27T20:54:31.551Z,13.27
2018-09-27T20:56:59.217Z,12.47
2018-09-27T20:59:26.692Z,13.20
2018-09-27T21:01:54.147Z,13.00
2018-09-27T21:04:21.573Z,12.40
2018-09-27T21:06:48.989Z,13.50
2018-09-27T21:09:16.603Z,13.97
2018-09-27T21:11:44.087Z,13.00
2018-09-27T21:14:13.500Z,14.20
2018-09-27T21:16:41.183Z,14.60
2018-09-27T21:19:09.244Z,15.03
2018-09-27T21:21:36.655Z,14.43
2018-09-27T21:24:04.101Z,13.83
2018-09-27T21:26:31.566Z,15.13
2018-09-27T21:28:59.036Z,14.37
2018-09-27T21:31:26.623Z,15.10
2018-09-27T21:33:54.063Z,13.90
2018-09-27T21:36:21.499Z,15.03
2018-09-27T21:38:49.060Z,13.47
2018-09-27T21:41:16.491Z,14.97
2018-09-27T21:43:43.916Z,16.20
2018-09-27T21:46:11.856Z,13.63
2018-09-27T21:48:39.351Z,13.87
2018-09-27T21:51:06.820Z,14.07
2018-09-27T21:53:34.257Z,14.67
2018-09-27T21:56:06.220Z,14.70
2018-09-27T21:58:33.651Z,13.93
2018-09-27T22:01:01.420Z,15.27
2018-09-27T22:03:28.836Z,14.23
2018-09-27T22:05:56.272Z,13.77
2018-09-27T22:08:24.921Z,15.13
2018-09-27T22:10:52.351Z,16.00
2018-09-27T22:13:19.774Z,14.80
2018-09-27T22:15:47.171Z,15.80
2018-09-27T22:18:14.620Z,15.57
2018-09-27T22:20:42.091Z,14.50
2018-09-27T22:23:09.516Z,13.90
2018-09-27T22:25:36.919Z,14.30
2018-09-27T22:28:04.393Z,13.37
2018-09-27T22:30:31.812Z,11.53
2018-09-27T22:32:59.290Z,12.53
2018-09-27T22:35:26.714Z,12.70
2018-09-27T22:37:54.138Z,11.83
2018-09-27T22:40:21.636Z,12.53
2018-09-27T22:42:49.102Z,12.27
2018-09-27T22:45:16.503Z,10.90
2018-09-27T22:47:44.088Z,11.73
2018-09-27T22:50:12.662Z,11.00
2018-09-27T22:52:40.089Z,10.50
2018-09-27T22:55:07.546Z,11.33
2018-09-27T22:57:35.360Z,10.40
2018-09-27T23:00:02.902Z,11.00
2018-09-27T23:02:30.315Z,11.53
2018-09-27T23:04:57.763Z,11.93
2018-09-27T23:07:25.257Z,12.03
2018-09-27T23:09:52.800Z,13.80
2018-09-27T23:12:20.393Z,15.37
2018-09-27T23:14:47.820Z,15.20
2018-09-27T23:17:15.245Z,14.10
2018-09-27T23:19:42.726Z,14.80
2018-09-27T23:22:10.791Z,15.20
2018-09-27T23:24:38.238Z,14.73
2018-09-27T23:27:05.787Z,16.97
2018-09-27T23:38:42.926Z,18.13
2018-09-27T23:41:10.379Z,19.80
2018-09-27T23:43:37.830Z,18.47
2018-09-27T23:46:06.279Z,19.07
2018-09-27T23:48:33.880Z,19.00
2018-09-27T23:51:01.475Z,18.23
2018-09-27T23:53:29.102Z,18.27
2018-09-27T23:55:56.557Z,17.80
2018-09-27T23:58:24.256Z,18.90
